sensor_id;sensor_type;location;lat;lon;timestamp;P1;durP1;ratioP1;P2;durP2;ratioP2
32200;SDS011;18701;45.588;5.288;2023-03-23T00:00:37;4.32;;;1.48;;
32200;SDS011;18701;45.588;5.288;2023-03-23T00:03:03;2.67;;;2.45;;
32200;SDS011;18701;45.588;5.288;2023-03-23T00:05:29;4.00;;;2.13;;
32200;SDS011;18701;45.588;5.288;2023-03-23T00:07:55;4.35;;;1.52;;
32200;SDS011;18701;45.588;5.288;2023-03-23T00:10:21;4.82;;;4.40;;
32200;SDS011;18701;45.588;5.288;2023-03-23T00:12:49;3.75;;;1.20;;
32200;SDS011;18701;45.588;5.288;2023-03-23T00:15:14;7.72;;;7.03;;
32200;SDS011;18701;45.588;5.288;2023-03-23T00:17:41;2.88;;;2.55;;
32200;SDS011;18701;45.588;5.288;2023-03-23T00:20:08;3.90;;;2.22;;
32200;SDS011;18701;45.588;5.288;2023-03-23T00:22:36;9.50;;;8.63;;
32200;SDS011;18701;45.588;5.288;2023-03-23T00:25:05;3.72;;;3.38;;
32200;SDS011;18701;45.588;5.288;2023-03-23T00:27:33;4.97;;;2.05;;
32200;SDS011;18701;45.588;5.288;2023-03-23T00:29:59;4.35;;;1.02;;
32200;SDS011;18701;45.588;5.288;2023-03-23T00:32:25;7.10;;;6.22;;
32200;SDS011;18701;45.588;5.288;2023-03-23T00:34:57;4.82;;;4.40;;
32200;SDS011;18701;45.588;5.288;2023-03-23T00:37:26;4.47;;;1.58;;
32200;SDS011;18701;45.588;5.288;2023-03-23T00:39:52;6.63;;;5.40;;
32200;SDS011;18701;45.588;5.288;2023-03-23T00:42:22;4.65;;;2.97;;
32200;SDS011;18701;45.588;5.288;2023-03-23T00:44:48;4.55;;;1.77;;
32200;SDS011;18701;45.588;5.288;2023-03-23T00:47:14;6.35;;;5.75;;
32200;SDS011;18701;45.588;5.288;2023-03-23T00:49:41;7.60;;;4.20;;
32200;SDS011;18701;45.588;5.288;2023-03-23T00:52:07;5.38;;;2.63;;
32200;SDS011;18701;45.588;5.288;2023-03-23T00:54:35;1.25;;;0.60;;
32200;SDS011;18701;45.588;5.288;2023-03-23T00:57:02;1.30;;;0.30;;
32200;SDS011;18701;45.588;5.288;2023-03-23T00:59:29;2.90;;;0.43;;
32200;SDS011;18701;45.588;5.288;2023-03-23T01:01:55;1.58;;;0.30;;
32200;SDS011;18701;45.588;5.288;2023-03-23T01:04:21;2.15;;;0.50;;
32200;SDS011;18701;45.588;5.288;2023-03-23T01:06:48;1.23;;;0.52;;
32200;SDS011;18701;45.588;5.288;2023-03-23T01:09:15;2.97;;;0.82;;
32200;SDS011;18701;45.588;5.288;2023-03-23T01:11:45;1.25;;;0.50;;
32200;SDS011;18701;45.588;5.288;2023-03-23T01:14:12;2.40;;;0.40;;
32200;SDS011;18701;45.588;5.288;2023-03-23T01:16:40;2.97;;;0.40;;
32200;SDS011;18701;45.588;5.288;2023-03-23T01:19:06;3.30;;;0.50;;
32200;SDS011;18701;45.588;5.288;2023-03-23T01:21:32;6.15;;;0.30;;
32200;SDS011;18701;45.588;5.288;2023-03-23T01:23:58;1.75;;;0.20;;
32200;SDS011;18701;45.588;5.288;2023-03-23T01:26:24;5.18;;;0.60;;
32200;SDS011;18701;45.588;5.288;2023-03-23T01:28:51;2.85;;;0.30;;
32200;SDS011;18701;45.588;5.288;2023-03-23T01:31:21;2.42;;;0.38;;
32200;SDS011;18701;45.588;5.288;2023-03-23T01:33:49;9.25;;;1.10;;
32200;SDS011;18701;45.588;5.288;2023-03-23T01:36:23;2.42;;;0.50;;
32200;SDS011;18701;45.588;5.288;2023-03-23T01:38:51;1.23;;;0.32;;
32200;SDS011;18701;45.588;5.288;2023-03-23T01:41:17;2.08;;;0.43;;
32200;SDS011;18701;45.588;5.288;2023-03-23T01:46:27;3.58;;;0.38;;
32200;SDS011;18701;45.588;5.288;2023-03-23T01:48:54;1.27;;;0.40;;
32200;SDS011;18701;45.588;5.288;2023-03-23T01:51:23;4.13;;;0.50;;
32200;SDS011;18701;45.588;5.288;2023-03-23T01:53:53;2.80;;;0.40;;
32200;SDS011;18701;45.588;5.288;2023-03-23T01:56:22;2.90;;;0.50;;
32200;SDS011;18701;45.588;5.288;2023-03-23T01:58:55;1.30;;;0.40;;
32200;SDS011;18701;45.588;5.288;2023-03-23T02:01:21;2.13;;;0.63;;
32200;SDS011;18701;45.588;5.288;2023-03-23T02:03:50;0.95;;;0.20;;
32200;SDS011;18701;45.588;5.288;2023-03-23T02:06:17;7.13;;;0.63;;
32200;SDS011;18701;45.588;5.288;2023-03-23T02:08:43;1.77;;;0.50;;
32200;SDS011;18701;45.588;5.288;2023-03-23T02:11:13;1.23;;;0.40;;
32200;SDS011;18701;45.588;5.288;2023-03-23T02:13:40;2.15;;;0.47;;
32200;SDS011;18701;45.588;5.288;2023-03-23T02:27:19;2.78;;;0.50;;
32200;SDS011;18701;45.588;5.288;2023-03-23T02:33:28;2.50;;;1.00;;
32200;SDS011;18701;45.588;5.288;2023-03-23T02:35:37;3.88;;;1.02;;
32200;SDS011;18701;45.588;5.288;2023-03-23T02:38:15;3.95;;;1.23;;
32200;SDS011;18701;45.588;5.288;2023-03-23T02:40:46;3.72;;;1.35;;
32200;SDS011;18701;45.588;5.288;2023-03-23T02:43:15;5.55;;;5.05;;
32200;SDS011;18701;45.588;5.288;2023-03-23T02:45:45;2.08;;;1.88;;
32200;SDS011;18701;45.588;5.288;2023-03-23T02:48:15;2.35;;;2.03;;
32200;SDS011;18701;45.588;5.288;2023-03-23T02:50:45;3.65;;;1.55;;
32200;SDS011;18701;45.588;5.288;2023-03-23T02:53:14;2.75;;;2.50;;
32200;SDS011;18701;45.588;5.288;2023-03-23T02:55:43;4.97;;;3.78;;
32200;SDS011;18701;45.588;5.288;2023-03-23T02:58:11;1.75;;;0.47;;
32200;SDS011;18701;45.588;5.288;2023-03-23T03:00:37;1.63;;;1.35;;
32200;SDS011;18701;45.588;5.288;2023-03-23T03:03:03;3.50;;;1.10;;
32200;SDS011;18701;45.588;5.288;2023-03-23T03:11:06;2.50;;;1.00;;
32200;SDS011;18701;45.588;5.288;2023-03-23T03:16:22;5.22;;;3.80;;
32200;SDS011;18701;45.588;5.288;2023-03-23T03:18:56;3.50;;;0.68;;
32200;SDS011;18701;45.588;5.288;2023-03-23T03:23:56;1.30;;;1.10;;
32200;SDS011;18701;45.588;5.288;2023-03-23T03:26:25;1.58;;;0.60;;
32200;SDS011;18701;45.588;5.288;2023-03-23T03:28:53;3.75;;;1.23;;
32200;SDS011;18701;45.588;5.288;2023-03-23T03:31:21;6.38;;;1.70;;
32200;SDS011;18701;45.588;5.288;2023-03-23T03:34:10;2.72;;;0.93;;
32200;SDS011;18701;45.588;5.288;2023-03-23T03:36:37;2.38;;;0.60;;
32200;SDS011;18701;45.588;5.288;2023-03-23T03:39:06;3.58;;;1.10;;
32200;SDS011;18701;45.588;5.288;2023-03-23T03:41:34;1.95;;;0.63;;
32200;SDS011;18701;45.588;5.288;2023-03-23T03:44:02;1.83;;;1.30;;
32200;SDS011;18701;45.588;5.288;2023-03-23T03:46:29;3.45;;;0.90;;
32200;SDS011;18701;45.588;5.288;2023-03-23T03:48:56;2.55;;;1.30;;
32200;SDS011;18701;45.588;5.288;2023-03-23T03:51:22;2.75;;;1.10;;
32200;SDS011;18701;45.588;5.288;2023-03-23T03:53:49;4.47;;;0.95;;
32200;SDS011;18701;45.588;5.288;2023-03-23T03:56:14;5.35;;;0.77;;
32200;SDS011;18701;45.588;5.288;2023-03-23T03:58:40;1.92;;;1.20;;
32200;SDS011;18701;45.588;5.288;2023-03-23T04:01:08;3.33;;;0.80;;
32200;SDS011;18701;45.588;5.288;2023-03-23T04:03:38;2.55;;;1.13;;
32200;SDS011;18701;45.588;5.288;2023-03-23T04:06:04;3.10;;;1.30;;
32200;SDS011;18701;45.588;5.288;2023-03-23T04:08:30;5.05;;;1.52;;
32200;SDS011;18701;45.588;5.288;2023-03-23T04:10:57;3.30;;;0.90;;
32200;SDS011;18701;45.588;5.288;2023-03-23T04:13:22;5.55;;;1.92;;
32200;SDS011;18701;45.588;5.288;2023-03-23T04:15:48;1.67;;;0.68;;
32200;SDS011;18701;45.588;5.288;2023-03-23T04:18:14;3.13;;;0.60;;
32200;SDS011;18701;45.588;5.288;2023-03-23T04:20:43;2.10;;;0.40;;
32200;SDS011;18701;45.588;5.288;2023-03-23T04:23:12;1.33;;;0.40;;
32200;SDS011;18701;45.588;5.288;2023-03-23T04:25:48;3.60;;;0.90;;
32200;SDS011;18701;45.588;5.288;2023-03-23T04:28:16;4.13;;;0.70;;
32200;SDS011;18701;45.588;5.288;2023-03-23T04:30:43;1.80;;;0.45;;
32200;SDS011;18701;45.588;5.288;2023-03-23T04:33:11;2.38;;;0.35;;
32200;SDS011;18701;45.588;5.288;2023-03-23T04:35:41;1.52;;;0.50;;
32200;SDS011;18701;45.588;5.288;2023-03-23T04:38:10;4.45;;;0.45;;
32200;SDS011;18701;45.588;5.288;2023-03-23T04:40:38;3.53;;;0.50;;
32200;SDS011;18701;45.588;5.288;2023-03-23T04:43:05;2.63;;;0.73;;
32200;SDS011;18701;45.588;5.288;2023-03-23T04:45:32;6.28;;;1.60;;
32200;SDS011;18701;45.588;5.288;2023-03-23T04:47:59;1.63;;;0.60;;
32200;SDS011;18701;45.588;5.288;2023-03-23T04:50:27;2.38;;;0.88;;
32200;SDS011;18701;45.588;5.288;2023-03-23T04:52:55;2.40;;;0.90;;
32200;SDS011;18701;45.588;5.288;2023-03-23T04:55:23;8.93;;;0.82;;
32200;SDS011;18701;45.588;5.288;2023-03-23T04:57:50;4.13;;;0.80;;
32200;SDS011;18701;45.588;5.288;2023-03-23T05:00:16;5.07;;;0.50;;
32200;SDS011;18701;45.588;5.288;2023-03-23T05:02:43;1.58;;;0.80;;
32200;SDS011;18701;45.588;5.288;2023-03-23T05:05:14;2.80;;;0.43;;
32200;SDS011;18701;45.588;5.288;2023-03-23T05:07:40;4.05;;;1.63;;
32200;SDS011;18701;45.588;5.288;2023-03-23T05:10:07;1.08;;;0.40;;
32200;SDS011;18701;45.588;5.288;2023-03-23T05:12:35;4.07;;;1.00;;
32200;SDS011;18701;45.588;5.288;2023-03-23T05:15:01;2.80;;;0.43;;
32200;SDS011;18701;45.588;5.288;2023-03-23T05:17:27;4.75;;;2.05;;
32200;SDS011;18701;45.588;5.288;2023-03-23T05:19:55;2.20;;;0.60;;
32200;SDS011;18701;45.588;5.288;2023-03-23T05:22:21;4.32;;;1.27;;
32200;SDS011;18701;45.588;5.288;2023-03-23T05:24:47;2.25;;;1.42;;
32200;SDS011;18701;45.588;5.288;2023-03-23T05:27:16;2.38;;;0.60;;
32200;SDS011;18701;45.588;5.288;2023-03-23T05:29:43;2.55;;;0.80;;
32200;SDS011;18701;45.588;5.288;2023-03-23T05:32:16;2.40;;;0.80;;
32200;SDS011;18701;45.588;5.288;2023-03-23T05:34:44;3.92;;;1.60;;
32200;SDS011;18701;45.588;5.288;2023-03-23T05:37:09;2.22;;;0.77;;
32200;SDS011;18701;45.588;5.288;2023-03-23T05:39:36;3.70;;;0.95;;
32200;SDS011;18701;45.588;5.288;2023-03-23T05:42:03;2.60;;;0.65;;
32200;SDS011;18701;45.588;5.288;2023-03-23T05:44:29;3.03;;;0.75;;
32200;SDS011;18701;45.588;5.288;2023-03-23T05:46:55;4.63;;;1.02;;
32200;SDS011;18701;45.588;5.288;2023-03-23T05:49:21;1.50;;;0.60;;
32200;SDS011;18701;45.588;5.288;2023-03-23T05:51:47;3.30;;;0.70;;
32200;SDS011;18701;45.588;5.288;2023-03-23T05:54:14;2.17;;;0.63;;
32200;SDS011;18701;45.588;5.288;2023-03-23T05:56:40;4.82;;;1.20;;
32200;SDS011;18701;45.588;5.288;2023-03-23T05:59:06;3.47;;;1.30;;
32200;SDS011;18701;45.588;5.288;2023-03-23T06:01:32;5.78;;;0.63;;
32200;SDS011;18701;45.588;5.288;2023-03-23T06:03:58;2.58;;;0.80;;
32200;SDS011;18701;45.588;5.288;2023-03-23T06:06:24;6.15;;;0.73;;
32200;SDS011;18701;45.588;5.288;2023-03-23T06:08:54;5.75;;;0.73;;
32200;SDS011;18701;45.588;5.288;2023-03-23T06:11:20;4.15;;;0.60;;
32200;SDS011;18701;45.588;5.288;2023-03-23T06:13:46;2.90;;;1.00;;
32200;SDS011;18701;45.588;5.288;2023-03-23T06:16:12;1.63;;;0.70;;
32200;SDS011;18701;45.588;5.288;2023-03-23T06:18:38;3.40;;;0.90;;
32200;SDS011;18701;45.588;5.288;2023-03-23T06:21:05;4.85;;;1.48;;
32200;SDS011;18701;45.588;5.288;2023-03-23T06:23:31;3.13;;;1.35;;
32200;SDS011;18701;45.588;5.288;2023-03-23T06:25:58;3.17;;;0.70;;
32200;SDS011;18701;45.588;5.288;2023-03-23T06:28:26;2.20;;;0.77;;
32200;SDS011;18701;45.588;5.288;2023-03-23T06:30:52;2.25;;;1.50;;
32200;SDS011;18701;45.588;5.288;2023-03-23T06:33:18;6.93;;;1.80;;
32200;SDS011;18701;45.588;5.288;2023-03-23T06:35:44;3.25;;;0.85;;
32200;SDS011;18701;45.588;5.288;2023-03-23T06:38:10;2.78;;;1.00;;
32200;SDS011;18701;45.588;5.288;2023-03-23T06:40:36;7.45;;;1.08;;
32200;SDS011;18701;45.588;5.288;2023-03-23T06:43:02;3.58;;;0.90;;
32200;SDS011;18701;45.588;5.288;2023-03-23T06:45:31;3.05;;;1.25;;
32200;SDS011;18701;45.588;5.288;2023-03-23T06:47:56;7.05;;;1.00;;
32200;SDS011;18701;45.588;5.288;2023-03-23T06:50:22;2.00;;;0.75;;
32200;SDS011;18701;45.588;5.288;2023-03-23T06:52:48;2.28;;;0.50;;
32200;SDS011;18701;45.588;5.288;2023-03-23T06:55:16;3.35;;;0.57;;
32200;SDS011;18701;45.588;5.288;2023-03-23T06:57:43;3.08;;;0.68;;
32200;SDS011;18701;45.588;5.288;2023-03-23T07:00:10;5.70;;;1.13;;
32200;SDS011;18701;45.588;5.288;2023-03-23T07:02:38;2.63;;;0.52;;
32200;SDS011;18701;45.588;5.288;2023-03-23T07:05:05;5.32;;;0.90;;
32200;SDS011;18701;45.588;5.288;2023-03-23T07:07:32;5.50;;;1.27;;
32200;SDS011;18701;45.588;5.288;2023-03-23T07:09:58;3.75;;;1.00;;
32200;SDS011;18701;45.588;5.288;2023-03-23T07:12:23;1.70;;;0.50;;
32200;SDS011;18701;45.588;5.288;2023-03-23T07:14:49;3.70;;;1.00;;
32200;SDS011;18701;45.588;5.288;2023-03-23T07:17:15;4.10;;;1.02;;
32200;SDS011;18701;45.588;5.288;2023-03-23T07:19:41;3.67;;;1.10;;
32200;SDS011;18701;45.588;5.288;2023-03-23T07:22:07;5.40;;;1.30;;
32200;SDS011;18701;45.588;5.288;2023-03-23T07:24:33;21.77;;;16.90;;
32200;SDS011;18701;45.588;5.288;2023-03-23T07:27:00;4.05;;;1.65;;
32200;SDS011;18701;45.588;5.288;2023-03-23T07:29:26;1.98;;;1.27;;
32200;SDS011;18701;45.588;5.288;2023-03-23T07:31:51;2.17;;;1.08;;
32200;SDS011;18701;45.588;5.288;2023-03-23T07:34:18;2.88;;;1.08;;
32200;SDS011;18701;45.588;5.288;2023-03-23T07:36:44;4.20;;;1.00;;
32200;SDS011;18701;45.588;5.288;2023-03-23T07:39:10;2.45;;;1.30;;
32200;SDS011;18701;45.588;5.288;2023-03-23T07:41:37;2.75;;;0.80;;
32200;SDS011;18701;45.588;5.288;2023-03-23T07:44:03;10.02;;;1.65;;
32200;SDS011;18701;45.588;5.288;2023-03-23T07:46:29;2.45;;;1.15;;
32200;SDS011;18701;45.588;5.288;2023-03-23T07:48:55;7.35;;;1.77;;
32200;SDS011;18701;45.588;5.288;2023-03-23T07:51:21;7.97;;;1.23;;
32200;SDS011;18701;45.588;5.288;2023-03-23T07:53:48;8.48;;;1.42;;
32200;SDS011;18701;45.588;5.288;2023-03-23T07:56:15;5.05;;;3.47;;
32200;SDS011;18701;45.588;5.288;2023-03-23T07:58:44;4.28;;;1.25;;
32200;SDS011;18701;45.588;5.288;2023-03-23T08:01:12;4.13;;;1.73;;
32200;SDS011;18701;45.588;5.288;2023-03-23T08:03:38;4.07;;;3.42;;
32200;SDS011;18701;45.588;5.288;2023-03-23T08:06:04;5.20;;;2.85;;
32200;SDS011;18701;45.588;5.288;2023-03-23T08:08:30;4.03;;;3.00;;
32200;SDS011;18701;45.588;5.288;2023-03-23T08:10:56;7.13;;;2.28;;
32200;SDS011;18701;45.588;5.288;2023-03-23T08:13:22;4.85;;;1.40;;
32200;SDS011;18701;45.588;5.288;2023-03-23T08:15:49;3.00;;;2.05;;
32200;SDS011;18701;45.588;5.288;2023-03-23T08:18:16;6.05;;;3.50;;
32200;SDS011;18701;45.588;5.288;2023-03-23T08:20:42;4.40;;;3.28;;
32200;SDS011;18701;45.588;5.288;2023-03-23T08:23:09;5.20;;;3.60;;
32200;SDS011;18701;45.588;5.288;2023-03-23T08:25:36;7.05;;;2.58;;
32200;SDS011;18701;45.588;5.288;2023-03-23T08:28:02;7.70;;;2.03;;
32200;SDS011;18701;45.588;5.288;2023-03-23T08:30:28;5.57;;;3.50;;
32200;SDS011;18701;45.588;5.288;2023-03-23T08:32:57;5.63;;;3.20;;
32200;SDS011;18701;45.588;5.288;2023-03-23T08:35:24;5.18;;;1.63;;
32200;SDS011;18701;45.588;5.288;2023-03-23T08:37:50;7.03;;;4.18;;
32200;SDS011;18701;45.588;5.288;2023-03-23T08:40:16;6.38;;;3.55;;
32200;SDS011;18701;45.588;5.288;2023-03-23T08:42:44;9.40;;;4.05;;
32200;SDS011;18701;45.588;5.288;2023-03-23T08:45:12;5.55;;;3.53;;
32200;SDS011;18701;45.588;5.288;2023-03-23T08:47:41;9.20;;;7.10;;
32200;SDS011;18701;45.588;5.288;2023-03-23T08:50:13;5.50;;;4.15;;
32200;SDS011;18701;45.588;5.288;2023-03-23T08:52:40;9.85;;;4.88;;
32200;SDS011;18701;45.588;5.288;2023-03-23T08:55:06;3.65;;;2.22;;
32200;SDS011;18701;45.588;5.288;2023-03-23T08:57:33;3.35;;;2.60;;
32200;SDS011;18701;45.588;5.288;2023-03-23T09:00:01;4.03;;;2.33;;
32200;SDS011;18701;45.588;5.288;2023-03-23T09:02:42;5.88;;;3.75;;
32200;SDS011;18701;45.588;5.288;2023-03-23T09:05:13;9.48;;;4.70;;
32200;SDS011;18701;45.588;5.288;2023-03-23T09:07:40;4.55;;;2.60;;
32200;SDS011;18701;45.588;5.288;2023-03-23T09:10:08;5.93;;;4.30;;
32200;SDS011;18701;45.588;5.288;2023-03-23T09:12:34;5.00;;;3.08;;
32200;SDS011;18701;45.588;5.288;2023-03-23T09:15:01;4.30;;;2.88;;
32200;SDS011;18701;45.588;5.288;2023-03-23T09:17:33;6.85;;;2.88;;
32200;SDS011;18701;45.588;5.288;2023-03-23T09:20:05;8.18;;;2.88;;
32200;SDS011;18701;45.588;5.288;2023-03-23T09:22:42;5.18;;;2.80;;
32200;SDS011;18701;45.588;5.288;2023-03-23T09:25:10;7.30;;;3.88;;
32200;SDS011;18701;45.588;5.288;2023-03-23T09:27:37;5.65;;;3.50;;
32200;SDS011;18701;45.588;5.288;2023-03-23T09:30:08;6.60;;;3.85;;
32200;SDS011;18701;45.588;5.288;2023-03-23T09:32:37;7.50;;;4.60;;
32200;SDS011;18701;45.588;5.288;2023-03-23T09:35:05;7.78;;;4.32;;
32200;SDS011;18701;45.588;5.288;2023-03-23T09:37:37;6.50;;;4.57;;
32200;SDS011;18701;45.588;5.288;2023-03-23T09:40:04;9.10;;;5.38;;
32200;SDS011;18701;45.588;5.288;2023-03-23T09:42:36;8.02;;;5.10;;
32200;SDS011;18701;45.588;5.288;2023-03-23T09:45:16;9.18;;;5.18;;
32200;SDS011;18701;45.588;5.288;2023-03-23T09:48:10;10.80;;;5.35;;
32200;SDS011;18701;45.588;5.288;2023-03-23T09:51:27;12.77;;;5.50;;
32200;SDS011;18701;45.588;5.288;2023-03-23T09:53:51;12.27;;;5.65;;
32200;SDS011;18701;45.588;5.288;2023-03-23T09:56:23;11.38;;;5.57;;
32200;SDS011;18701;45.588;5.288;2023-03-23T09:59:00;9.10;;;5.35;;
32200;SDS011;18701;45.588;5.288;2023-03-23T10:01:38;10.48;;;5.65;;
32200;SDS011;18701;45.588;5.288;2023-03-23T10:04:13;9.80;;;5.40;;
32200;SDS011;18701;45.588;5.288;2023-03-23T10:07:19;8.57;;;4.80;;
32200;SDS011;18701;45.588;5.288;2023-03-23T10:09:51;9.95;;;5.40;;
32200;SDS011;18701;45.588;5.288;2023-03-23T10:12:27;9.10;;;4.63;;
32200;SDS011;18701;45.588;5.288;2023-03-23T10:20:59;13.57;;;5.25;;
32200;SDS011;18701;45.588;5.288;2023-03-23T10:28:59;6.05;;;3.70;;
32200;SDS011;18701;45.588;5.288;2023-03-23T10:31:37;10.48;;;4.93;;
32200;SDS011;18701;45.588;5.288;2023-03-23T10:34:16;6.32;;;4.30;;
32200;SDS011;18701;45.588;5.288;2023-03-23T10:36:56;8.57;;;4.60;;
32200;SDS011;18701;45.588;5.288;2023-03-23T10:39:47;7.18;;;4.00;;
32200;SDS011;18701;45.588;5.288;2023-03-23T10:44:56;6.45;;;4.13;;
32200;SDS011;18701;45.588;5.288;2023-03-23T10:47:24;8.50;;;3.58;;
32200;SDS011;18701;45.588;5.288;2023-03-23T10:49:52;6.93;;;3.47;;
32200;SDS011;18701;45.588;5.288;2023-03-23T10:52:32;8.77;;;3.63;;
32200;SDS011;18701;45.588;5.288;2023-03-23T10:55:15;7.47;;;2.90;;
32200;SDS011;18701;45.588;5.288;2023-03-23T10:57:44;7.57;;;3.75;;
32200;SDS011;18701;45.588;5.288;2023-03-23T11:00:21;8.52;;;3.78;;
32200;SDS011;18701;45.588;5.288;2023-03-23T11:03:04;6.80;;;3.70;;
32200;SDS011;18701;45.588;5.288;2023-03-23T11:05:43;6.93;;;3.95;;
32200;SDS011;18701;45.588;5.288;2023-03-23T11:08:22;6.93;;;4.25;;
32200;SDS011;18701;45.588;5.288;2023-03-23T11:10:58;12.52;;;5.05;;
32200;SDS011;18701;45.588;5.288;2023-03-23T11:13:37;10.68;;;4.85;;
32200;SDS011;18701;45.588;5.288;2023-03-23T11:16:07;10.80;;;5.30;;
32200;SDS011;18701;45.588;5.288;2023-03-23T11:18:38;6.78;;;4.30;;
32200;SDS011;18701;45.588;5.288;2023-03-23T11:21:07;8.10;;;5.00;;
32200;SDS011;18701;45.588;5.288;2023-03-23T11:23:37;8.82;;;4.55;;
32200;SDS011;18701;45.588;5.288;2023-03-23T11:26:17;8.75;;;5.22;;
32200;SDS011;18701;45.588;5.288;2023-03-23T11:31:19;6.82;;;4.68;;
32200;SDS011;18701;45.588;5.288;2023-03-23T11:36:28;8.13;;;5.28;;
32200;SDS011;18701;45.588;5.288;2023-03-23T11:39:22;8.82;;;5.13;;
32200;SDS011;18701;45.588;5.288;2023-03-23T11:41:48;12.07;;;5.20;;
32200;SDS011;18701;45.588;5.288;2023-03-23T11:44:14;10.15;;;4.70;;
32200;SDS011;18701;45.588;5.288;2023-03-23T11:46:58;7.20;;;5.07;;
32200;SDS011;18701;45.588;5.288;2023-03-23T11:54:57;7.38;;;4.68;;
32200;SDS011;18701;45.588;5.288;2023-03-23T11:57:34;7.18;;;4.15;;
32200;SDS011;18701;45.588;5.288;2023-03-23T12:00:00;7.80;;;4.00;;
32200;SDS011;18701;45.588;5.288;2023-03-23T12:02:39;8.30;;;5.97;;
32200;SDS011;18701;45.588;5.288;2023-03-23T12:05:36;7.20;;;4.60;;
32200;SDS011;18701;45.588;5.288;2023-03-23T12:10:53;9.10;;;3.67;;
32200;SDS011;18701;45.588;5.288;2023-03-23T12:24:34;9.00;;;4.28;;
32200;SDS011;18701;45.588;5.288;2023-03-23T12:41:17;7.15;;;4.80;;
32200;SDS011;18701;45.588;5.288;2023-03-23T12:44:08;8.95;;;4.38;;
32200;SDS011;18701;45.588;5.288;2023-03-23T12:54:36;7.60;;;5.30;;
32200;SDS011;18701;45.588;5.288;2023-03-23T13:00:28;7.28;;;5.53;;
32200;SDS011;18701;45.588;5.288;2023-03-23T13:02:52;11.10;;;6.28;;
32200;SDS011;18701;45.588;5.288;2023-03-23T13:08:37;11.50;;;6.35;;
32200;SDS011;18701;45.588;5.288;2023-03-23T13:11:14;10.57;;;6.35;;
32200;SDS011;18701;45.588;5.288;2023-03-23T13:13:47;11.85;;;6.43;;
32200;SDS011;18701;45.588;5.288;2023-03-23T13:18:52;9.18;;;5.72;;
32200;SDS011;18701;45.588;5.288;2023-03-23T13:21:34;11.70;;;6.93;;
32200;SDS011;18701;45.588;5.288;2023-03-23T13:24:12;14.23;;;5.78;;
32200;SDS011;18701;45.588;5.288;2023-03-23T13:26:41;11.90;;;6.35;;
32200;SDS011;18701;45.588;5.288;2023-03-23T13:29:18;10.02;;;7.30;;
32200;SDS011;18701;45.588;5.288;2023-03-23T13:31:46;11.38;;;6.25;;
32200;SDS011;18701;45.588;5.288;2023-03-23T13:34:22;12.05;;;6.53;;
32200;SDS011;18701;45.588;5.288;2023-03-23T13:36:55;12.95;;;6.32;;
32200;SDS011;18701;45.588;5.288;2023-03-23T13:39:36;9.10;;;6.38;;
32200;SDS011;18701;45.588;5.288;2023-03-23T13:42:21;13.50;;;6.90;;
32200;SDS011;18701;45.588;5.288;2023-03-23T13:52:36;11.35;;;6.93;;
32200;SDS011;18701;45.588;5.288;2023-03-23T14:05:39;9.25;;;6.13;;
32200;SDS011;18701;45.588;5.288;2023-03-23T14:08:24;12.65;;;5.93;;
32200;SDS011;18701;45.588;5.288;2023-03-23T14:11:12;10.52;;;6.40;;
32200;SDS011;18701;45.588;5.288;2023-03-23T14:13:58;9.88;;;6.18;;
32200;SDS011;18701;45.588;5.288;2023-03-23T14:16:38;13.98;;;7.10;;
32200;SDS011;18701;45.588;5.288;2023-03-23T14:22:02;14.13;;;6.47;;
32200;SDS011;18701;45.588;5.288;2023-03-23T14:24:29;11.32;;;5.72;;
32200;SDS011;18701;45.588;5.288;2023-03-23T14:29:58;14.10;;;6.30;;
32200;SDS011;18701;45.588;5.288;2023-03-23T14:32:25;12.07;;;5.55;;
32200;SDS011;18701;45.588;5.288;2023-03-23T14:34:53;13.55;;;5.97;;
32200;SDS011;18701;45.588;5.288;2023-03-23T14:37:20;12.35;;;6.60;;
32200;SDS011;18701;45.588;5.288;2023-03-23T14:39:52;8.82;;;5.28;;
32200;SDS011;18701;45.588;5.288;2023-03-23T14:42:22;13.48;;;6.40;;
32200;SDS011;18701;45.588;5.288;2023-03-23T14:44:57;12.20;;;5.55;;
32200;SDS011;18701;45.588;5.288;2023-03-23T14:47:26;13.13;;;6.47;;
32200;SDS011;18701;45.588;5.288;2023-03-23T14:50:01;7.90;;;5.30;;
32200;SDS011;18701;45.588;5.288;2023-03-23T14:52:36;9.43;;;5.80;;
32200;SDS011;18701;45.588;5.288;2023-03-23T14:55:17;9.55;;;5.60;;
32200;SDS011;18701;45.588;5.288;2023-03-23T14:57:47;10.10;;;5.82;;
32200;SDS011;18701;45.588;5.288;2023-03-23T15:00:14;10.93;;;5.22;;
32200;SDS011;18701;45.588;5.288;2023-03-23T15:02:48;9.48;;;4.82;;
32200;SDS011;18701;45.588;5.288;2023-03-23T15:05:18;10.38;;;5.28;;
32200;SDS011;18701;45.588;5.288;2023-03-23T15:07:51;7.45;;;4.47;;
32200;SDS011;18701;45.588;5.288;2023-03-23T15:10:20;14.00;;;4.30;;
32200;SDS011;18701;45.588;5.288;2023-03-23T15:12:48;11.88;;;4.70;;
32200;SDS011;18701;45.588;5.288;2023-03-23T15:15:31;12.98;;;4.50;;
32200;SDS011;18701;45.588;5.288;2023-03-23T15:18:01;9.13;;;4.68;;
32200;SDS011;18701;45.588;5.288;2023-03-23T15:20:32;7.32;;;4.40;;
32200;SDS011;18701;45.588;5.288;2023-03-23T15:23:15;10.90;;;4.32;;
32200;SDS011;18701;45.588;5.288;2023-03-23T15:25:53;7.20;;;4.35;;
32200;SDS011;18701;45.588;5.288;2023-03-23T15:28:20;6.82;;;4.22;;
32200;SDS011;18701;45.588;5.288;2023-03-23T15:30:53;5.43;;;4.00;;
32200;SDS011;18701;45.588;5.288;2023-03-23T15:33:23;8.20;;;3.60;;
32200;SDS011;18701;45.588;5.288;2023-03-23T15:35:54;6.65;;;3.97;;
32200;SDS011;18701;45.588;5.288;2023-03-23T15:38:30;8.35;;;3.58;;
32200;SDS011;18701;45.588;5.288;2023-03-23T15:40:58;11.63;;;4.47;;
32200;SDS011;18701;45.588;5.288;2023-03-23T15:43:30;15.40;;;4.15;;
32200;SDS011;18701;45.588;5.288;2023-03-23T15:45:58;9.23;;;3.95;;
32200;SDS011;18701;45.588;5.288;2023-03-23T15:48:31;4.40;;;3.17;;
32200;SDS011;18701;45.588;5.288;2023-03-23T15:51:12;9.13;;;3.58;;
32200;SDS011;18701;45.588;5.288;2023-03-23T15:53:39;5.13;;;3.22;;
32200;SDS011;18701;45.588;5.288;2023-03-23T15:56:06;8.32;;;3.95;;
32200;SDS011;18701;45.588;5.288;2023-03-23T15:58:35;6.32;;;3.78;;
32200;SDS011;18701;45.588;5.288;2023-03-23T16:01:04;6.55;;;3.90;;
32200;SDS011;18701;45.588;5.288;2023-03-23T16:03:46;10.40;;;3.95;;
32200;SDS011;18701;45.588;5.288;2023-03-23T16:06:32;11.90;;;4.55;;
32200;SDS011;18701;45.588;5.288;2023-03-23T16:08:59;9.98;;;4.13;;
32200;SDS011;18701;45.588;5.288;2023-03-23T16:11:26;6.70;;;4.00;;
32200;SDS011;18701;45.588;5.288;2023-03-23T16:13:53;8.18;;;3.83;;
32200;SDS011;18701;45.588;5.288;2023-03-23T16:16:21;9.18;;;3.72;;
32200;SDS011;18701;45.588;5.288;2023-03-23T16:18:50;11.18;;;4.07;;
32200;SDS011;18701;45.588;5.288;2023-03-23T16:21:15;12.77;;;4.40;;
32200;SDS011;18701;45.588;5.288;2023-03-23T16:23:41;6.60;;;3.95;;
32200;SDS011;18701;45.588;5.288;2023-03-23T16:26:10;8.93;;;3.95;;
32200;SDS011;18701;45.588;5.288;2023-03-23T16:28:39;10.98;;;4.30;;
32200;SDS011;18701;45.588;5.288;2023-03-23T16:31:05;7.00;;;4.15;;
32200;SDS011;18701;45.588;5.288;2023-03-23T16:33:31;8.27;;;4.03;;
32200;SDS011;18701;45.588;5.288;2023-03-23T16:35:57;9.95;;;3.97;;
32200;SDS011;18701;45.588;5.288;2023-03-23T16:38:23;9.23;;;4.55;;
32200;SDS011;18701;45.588;5.288;2023-03-23T16:40:49;8.15;;;3.70;;
32200;SDS011;18701;45.588;5.288;2023-03-23T16:43:15;4.57;;;3.22;;
32200;SDS011;18701;45.588;5.288;2023-03-23T16:45:42;9.73;;;4.78;;
32200;SDS011;18701;45.588;5.288;2023-03-23T16:48:09;11.52;;;4.13;;
32200;SDS011;18701;45.588;5.288;2023-03-23T16:50:36;8.70;;;4.15;;
32200;SDS011;18701;45.588;5.288;2023-03-23T16:53:02;10.20;;;4.13;;
32200;SDS011;18701;45.588;5.288;2023-03-23T16:55:29;9.10;;;3.70;;
32200;SDS011;18701;45.588;5.288;2023-03-23T16:57:55;9.48;;;3.40;;
32200;SDS011;18701;45.588;5.288;2023-03-23T17:00:22;8.38;;;3.97;;
32200;SDS011;18701;45.588;5.288;2023-03-23T17:02:50;12.55;;;3.75;;